Time;durP1;ratioP1;P1;durP2;ratioP2;P2;SDS_P1;SDS_P2;PMS_P1;PMS_P2;Temp;Humidity;BMP_temperature;BMP_pressure;BME280_temperature;BME280_humidity;BME280_pressure;Samples;Min_cycle;Max_cycle;Signal;HPM_P1;HPM_P2
2021/01/13 00:02:00;;;;;;;3.97;2.30;;;;;;;;;;5030289;28;20435;-60
2021/01/13 00:04:26;;;;;;;7.33;2.40;;;;;;;;;;5032059;28;20467;-59
2021/01/13 00:06:52;;;;;;;5.27;2.17;;;;;;;;;;5031240;28;20213;-58
2021/01/13 00:09:19;;;;;;;6.13;2.70;;;;;;;;;;5014366;28;21000;-59
2021/01/13 00:11:45;;;;;;;7.30;2.80;;;;;;;;;;5029873;28;20420;-59
2021/01/13 00:14:14;;;;;;;3.73;2.43;;;;;;;;;;5029910;28;20428;-59
2021/01/13 00:16:40;;;;;;;4.80;2.30;;;;;;;;;;5031055;28;20489;-59
2021/01/13 00:19:06;;;;;;;3.40;2.33;;;;;;;;;;5032535;28;20471;-58
2021/01/13 00:21:32;;;;;;;5.63;3.07;;;;;;;;;;5031341;28;20863;-58
2021/01/13 00:23:58;;;;;;;4.93;2.60;;;;;;;;;;5014040;28;20428;-58
2021/01/13 00:26:25;;;;;;;6.67;3.10;;;;;;;;;;5029825;28;20424;-58
2021/01/13 00:28:51;;;;;;;6.97;2.43;;;;;;;;;;5013535;28;20997;-58
2021/01/13 00:31:17;;;;;;;6.43;2.50;;;;;;;;;;5029810;28;20436;-59
2021/01/13 00:33:47;;;;;;;3.73;2.40;;;;;;;;;;5013603;28;20443;-58
2021/01/13 00:36:19;;;;;;;6.00;2.93;;;;;;;;;;5031372;28;20427;-58
2021/01/13 00:38:45;;;;;;;5.60;2.37;;;;;;;;;;5031353;28;20972;-59
2021/01/13 00:41:12;;;;;;;4.53;2.13;;;;;;;;;;5031636;28;20460;-60
2021/01/13 00:43:38;;;;;;;4.27;3.23;;;;;;;;;;5030375;28;20460;-58
2021/01/13 00:46:04;;;;;;;5.63;2.57;;;;;;;;;;5012828;28;20506;-58
2021/01/13 00:48:30;;;;;;;4.60;2.70;;;;;;;;;;5011956;28;20417;-58
2021/01/13 00:50:56;;;;;;;4.77;2.57;;;;;;;;;;5031448;28;20428;-58
2021/01/13 00:53:22;;;;;;;4.90;3.63;;;;;;;;;;5030218;28;20439;-58
2021/01/13 00:55:48;;;;;;;3.40;2.10;;;;;;;;;;5013058;28;20197;-58
2021/01/13 00:58:14;;;;;;;7.40;2.90;;;;;;;;;;5030856;28;20178;-57
2021/01/13 01:00:40;;;;;;;3.47;2.37;;;;;;;;;;5031053;28;20498;-58
2021/01/13 01:03:06;;;;;;;5.50;3.03;;;;;;;;;;5031397;28;20577;-58
2021/01/13 01:05:32;;;;;;;4.00;2.60;;;;;;;;;;5030476;28;20205;-58
2021/01/13 01:07:58;;;;;;;5.63;2.83;;;;;;;;;;5011171;28;20189;-58
2021/01/13 01:10:29;;;;;;;4.80;2.97;;;;;;;;;;5031315;28;20753;-59
2021/01/13 01:12:55;;;;;;;5.23;3.20;;;;;;;;;;5029763;28;20200;-58
2021/01/13 01:15:22;;;;;;;5.90;3.53;;;;;;;;;;5030495;28;21032;-58
2021/01/13 01:17:48;;;;;;;5.17;2.70;;;;;;;;;;5030700;28;20489;-59
2021/01/13 01:20:14;;;;;;;4.80;2.67;;;;;;;;;;5031276;28;20464;-58
2021/01/13 01:22:57;;;;;;;6.73;3.27;;;;;;;;;;5029985;28;20424;-58
2021/01/13 01:25:24;;;;;;;4.07;2.60;;;;;;;;;;5023736;28;20409;-59
2021/01/13 01:27:51;;;;;;;5.63;2.60;;;;;;;;;;5030145;28;20417;-58
2021/01/13 01:30:17;;;;;;;5.90;3.03;;;;;;;;;;5030483;28;20437;-58
2021/01/13 01:32:44;;;;;;;8.90;3.00;;;;;;;;;;5029814;28;20744;-58
2021/01/13 01:35:10;;;;;;;5.47;3.23;;;;;;;;;;5030575;28;20425;-59
2021/01/13 01:37:36;;;;;;;6.40;4.17;;;;;;;;;;5027142;28;20523;-59
2021/01/13 01:40:09;;;;;;;6.37;3.13;;;;;;;;;;5011868;28;20465;-58
2021/01/13 01:42:35;;;;;;;4.27;3.03;;;;;;;;;;5021479;28;20502;-57
2021/01/13 01:45:02;;;;;;;7.40;3.17;;;;;;;;;;5030168;28;20479;-58
2021/01/13 01:47:49;;;;;;;6.47;3.50;;;;;;;;;;5012263;28;20428;-59
2021/01/13 01:50:15;;;;;;;5.67;3.07;;;;;;;;;;5012851;28;20428;-58
2021/01/13 01:52:43;;;;;;;6.33;3.97;;;;;;;;;;5030278;28;20475;-57
2021/01/13 01:55:12;;;;;;;4.10;2.70;;;;;;;;;;5030112;28;20923;-58
2021/01/13 01:57:38;;;;;;;6.63;3.50;;;;;;;;;;5011899;28;20535;-58
2021/01/13 02:00:09;;;;;;;4.87;3.33;;;;;;;;;;5012041;28;20483;-57
2021/01/13 02:02:40;;;;;;;5.37;3.27;;;;;;;;;;5009680;28;20421;-58
2021/01/13 02:05:08;;;;;;;4.70;2.77;;;;;;;;;;5030374;28;20400;-57
2021/01/13 02:07:34;;;;;;;6.83;3.23;;;;;;;;;;5029279;28;20437;-58
2021/01/13 02:10:02;;;;;;;6.70;3.47;;;;;;;;;;5029966;28;20461;-58
2021/01/13 02:12:29;;;;;;;6.03;3.07;;;;;;;;;;5028640;28;20433;-58
2021/01/13 02:14:55;;;;;;;10.73;3.07;;;;;;;;;;5028636;28;20424;-57
2021/01/13 02:17:28;;;;;;;5.83;2.90;;;;;;;;;;5029640;28;20463;-57
2021/01/13 02:20:04;;;;;;;6.80;3.37;;;;;;;;;;5012061;28;20456;-56
2021/01/13 02:22:35;;;;;;;9.03;3.33;;;;;;;;;;5028326;28;20991;-58
2021/01/13 02:25:06;;;;;;;5.40;3.40;;;;;;;;;;5029401;28;20414;-57
2021/01/13 02:27:46;;;;;;;9.07;3.20;;;;;;;;;;5010788;28;20940;-58
2021/01/13 02:30:14;;;;;;;6.57;2.97;;;;;;;;;;5011500;28;20462;-58
2021/01/13 02:32:43;;;;;;;4.27;3.17;;;;;;;;;;5029179;28;20429;-57
2021/01/13 02:35:18;;;;;;;6.77;2.90;;;;;;;;;;5029738;28;21119;-57
2021/01/13 02:37:44;;;;;;;3.27;2.77;;;;;;;;;;5028946;28;20874;-57
2021/01/13 02:40:12;;;;;;;6.37;2.87;;;;;;;;;;5028615;28;20539;-57
2021/01/13 02:42:42;;;;;;;5.13;3.27;;;;;;;;;;5027950;28;20486;-57
2021/01/13 02:45:12;;;;;;;5.80;3.83;;;;;;;;;;5018222;28;20420;-57
2021/01/13 02:47:57;;;;;;;6.07;3.23;;;;;;;;;;5027900;28;20588;-57
2021/01/13 02:50:28;;;;;;;5.57;3.00;;;;;;;;;;5014359;28;20189;-57
2021/01/13 02:53:05;;;;;;;4.93;2.67;;;;;;;;;;5010142;28;20440;-57
2021/01/13 02:55:35;;;;;;;5.33;3.13;;;;;;;;;;5028687;28;20547;-57
2021/01/13 02:58:05;;;;;;;5.43;2.93;;;;;;;;;;5028328;28;20455;-57
2021/01/13 03:00:31;;;;;;;7.17;3.57;;;;;;;;;;5028064;28;20481;-57
2021/01/13 03:02:57;;;;;;;11.57;4.00;;;;;;;;;;5010397;28;20453;-57
2021/01/13 03:05:24;;;;;;;4.73;2.90;;;;;;;;;;5010694;28;20417;-58
2021/01/13 03:07:55;;;;;;;3.63;2.67;;;;;;;;;;5028257;28;20429;-59
2021/01/13 03:10:24;;;;;;;9.90;2.90;;;;;;;;;;5028483;28;20868;-57
2021/01/13 03:12:55;;;;;;;7.20;3.50;;;;;;;;;;5027795;28;20536;-57
2021/01/13 03:15:22;;;;;;;4.83;2.97;;;;;;;;;;5009776;28;20444;-57
2021/01/13 03:18:08;;;;;;;4.83;3.03;;;;;;;;;;5010160;28;20808;-58
2021/01/13 03:20:53;;;;;;;7.43;2.93;;;;;;;;;;5020399;28;20722;-57
2021/01/13 03:23:22;;;;;;;6.60;4.27;;;;;;;;;;5010431;28;20462;-56
2021/01/13 03:26:02;;;;;;;9.40;3.40;;;;;;;;;;5028389;28;20890;-57
2021/01/13 03:28:30;;;;;;;9.13;3.53;;;;;;;;;;5010428;28;20482;-60
2021/01/13 03:30:58;;;;;;;7.20;3.20;;;;;;;;;;5028878;28;20519;-58
2021/01/13 03:33:24;;;;;;;8.97;4.47;;;;;;;;;;5027834;28;20452;-58
2021/01/13 03:35:53;;;;;;;6.83;3.57;;;;;;;;;;5027392;28;20427;-60
2021/01/13 03:38:20;;;;;;;9.67;3.47;;;;;;;;;;5027979;28;20193;-56
2021/01/13 03:40:50;;;;;;;5.67;3.50;;;;;;;;;;5029627;28;20945;-55
2021/01/13 03:43:20;;;;;;;3.40;2.37;;;;;;;;;;5025307;28;20421;-56
2021/01/13 03:45:50;;;;;;;6.40;3.57;;;;;;;;;;5019999;28;20424;-56
2021/01/13 03:48:40;;;;;;;7.47;4.17;;;;;;;;;;5027884;28;20420;-56
2021/01/13 03:51:10;;;;;;;6.93;3.57;;;;;;;;;;5028395;28;20415;-58
2021/01/13 03:53:40;;;;;;;6.13;3.33;;;;;;;;;;5028078;28;20432;-57
2021/01/13 03:56:07;;;;;;;6.70;3.90;;;;;;;;;;5009576;28;20977;-57
2021/01/13 03:58:51;;;;;;;5.80;3.00;;;;;;;;;;5027549;28;20459;-56
2021/01/13 04:01:20;;;;;;;7.43;3.63;;;;;;;;;;5027597;28;20416;-57
2021/01/13 04:04:16;;;;;;;5.70;3.10;;;;;;;;;;5028942;28;21012;-56
2021/01/13 04:06:42;;;;;;;4.57;3.67;;;;;;;;;;4949570;28;20255;-57
2021/01/13 04:09:10;;;;;;;7.27;4.07;;;;;;;;;;5010224;28;20800;-57
2021/01/13 04:11:36;;;;;;;7.77;3.90;;;;;;;;;;5026277;28;20425;-57
2021/01/13 04:14:03;;;;;;;10.83;4.30;;;;;;;;;;5027851;28;20447;-57
2021/01/13 04:16:35;;;;;;;4.90;3.80;;;;;;;;;;5027190;28;20505;-57
2021/01/13 04:19:01;;;;;;;5.63;3.30;;;;;;;;;;5010078;28;20448;-60
2021/01/13 04:21:27;;;;;;;7.27;5.00;;;;;;;;;;5028002;28;20413;-57
2021/01/13 04:23:57;;;;;;;8.20;4.37;;;;;;;;;;5010214;28;20427;-59
2021/01/13 04:26:23;;;;;;;8.70;4.17;;;;;;;;;;5026781;28;20493;-60
2021/01/13 04:28:50;;;;;;;5.37;3.93;;;;;;;;;;5004116;28;20425;-57
2021/01/13 04:31:16;;;;;;;8.53;4.27;;;;;;;;;;5027367;28;20427;-57
2021/01/13 04:33:42;;;;;;;7.57;4.07;;;;;;;;;;5028234;28;20421;-57
2021/01/13 04:36:08;;;;;;;7.07;4.13;;;;;;;;;;5009722;28;20434;-57
2021/01/13 04:38:35;;;;;;;7.87;4.50;;;;;;;;;;5027225;28;20439;-58
2021/01/13 04:41:01;;;;;;;7.23;4.13;;;;;;;;;;5009525;28;20564;-58
2021/01/13 04:43:27;;;;;;;7.30;4.47;;;;;;;;;;5024122;28;20432;-57
2021/01/13 04:45:56;;;;;;;7.23;4.47;;;;;;;;;;5026957;28;20186;-58
2021/01/13 04:48:22;;;;;;;7.00;4.70;;;;;;;;;;5030781;28;20747;-57
2021/01/13 04:50:49;;;;;;;8.10;4.43;;;;;;;;;;5032136;28;20436;-57
2021/01/13 04:53:19;;;;;;;7.13;4.57;;;;;;;;;;5031296;28;20518;-56
2021/01/13 04:55:55;;;;;;;6.47;4.50;;;;;;;;;;5030367;28;20428;-57
2021/01/13 04:58:21;;;;;;;13.10;4.53;;;;;;;;;;5010520;28;20450;-57
2021/01/13 05:00:47;;;;;;;7.17;5.00;;;;;;;;;;5028348;28;20973;-57
2021/01/13 05:03:19;;;;;;;6.93;4.57;;;;;;;;;;5029251;28;20420;-57
2021/01/13 05:06:04;;;;;;;7.50;4.57;;;;;;;;;;5030460;28;20178;-57
2021/01/13 05:08:30;;;;;;;6.17;5.30;;;;;;;;;;5030923;28;20488;-58
2021/01/13 05:10:57;;;;;;;10.00;4.50;;;;;;;;;;5031503;28;20893;-58
2021/01/13 05:13:24;;;;;;;6.00;4.73;;;;;;;;;;5030042;28;20420;-58
2021/01/13 05:15:54;;;;;;;7.00;4.77;;;;;;;;;;5029101;28;20447;-58
2021/01/13 05:18:39;;;;;;;8.60;4.97;;;;;;;;;;5012248;28;20934;-58
2021/01/13 05:21:16;;;;;;;7.97;4.40;;;;;;;;;;5011099;28;20499;-58
2021/01/13 05:23:45;;;;;;;10.90;5.40;;;;;;;;;;5030776;28;20949;-58
2021/01/13 05:26:16;;;;;;;11.07;5.17;;;;;;;;;;5012135;28;20424;-58
2021/01/13 05:28:49;;;;;;;5.67;4.67;;;;;;;;;;5021480;28;20969;-59
2021/01/13 05:31:23;;;;;;;6.53;4.53;;;;;;;;;;5029604;28;20464;-59
2021/01/13 05:33:49;;;;;;;9.37;4.67;;;;;;;;;;5031166;28;20405;-61
2021/01/13 05:36:18;;;;;;;5.00;4.33;;;;;;;;;;5029265;28;20479;-59
2021/01/13 05:39:03;;;;;;;7.47;4.97;;;;;;;;;;5012280;28;20417;-58
2021/01/13 05:41:29;;;;;;;7.43;4.60;;;;;;;;;;5011171;28;20466;-57
2021/01/13 05:43:55;;;;;;;7.60;5.10;;;;;;;;;;5028061;28;20523;-59
2021/01/13 05:46:22;;;;;;;10.03;4.67;;;;;;;;;;5029141;28;20428;-58
2021/01/13 05:48:48;;;;;;;7.87;4.60;;;;;;;;;;5030252;28;20463;-58
2021/01/13 05:51:15;;;;;;;7.43;5.03;;;;;;;;;;5030720;28;20413;-59
2021/01/13 05:53:50;;;;;;;5.73;4.67;;;;;;;;;;5030341;28;20608;-58
2021/01/13 05:56:17;;;;;;;7.53;4.90;;;;;;;;;;5015797;28;20413;-61
2021/01/13 05:58:43;;;;;;;7.30;4.20;;;;;;;;;;5015720;28;20977;-58
2021/01/13 06:01:27;;;;;;;8.53;4.90;;;;;;;;;;5008138;28;20425;-59
2021/01/13 06:03:54;;;;;;;6.57;4.63;;;;;;;;;;5030487;28;20890;-58
2021/01/13 06:06:20;;;;;;;8.40;4.80;;;;;;;;;;5011761;28;20513;-58
2021/01/13 06:08:47;;;;;;;9.03;4.83;;;;;;;;;;5029652;28;20468;-58
2021/01/13 06:11:14;;;;;;;9.57;5.00;;;;;;;;;;5030176;28;20421;-58
2021/01/13 06:13:41;;;;;;;8.03;5.20;;;;;;;;;;5010456;28;20750;-58
2021/01/13 06:16:07;;;;;;;9.17;5.43;;;;;;;;;;5029061;28;20826;-58
2021/01/13 06:18:35;;;;;;;10.97;5.53;;;;;;;;;;5011914;28;20523;-58
2021/01/13 06:21:08;;;;;;;7.30;5.23;;;;;;;;;;5012329;28;20486;-58
2021/01/13 06:23:41;;;;;;;8.83;5.40;;;;;;;;;;4992828;28;20417;-57
2021/01/13 06:26:07;;;;;;;8.23;5.10;;;;;;;;;;5025447;28;20523;-61
2021/01/13 06:28:53;;;;;;;8.73;4.73;;;;;;;;;;5010742;28;20845;-58
2021/01/13 06:31:22;;;;;;;7.50;5.10;;;;;;;;;;5028910;28;20483;-57
2021/01/13 06:34:00;;;;;;;7.20;5.47;;;;;;;;;;5029697;28;20919;-57
2021/01/13 06:36:30;;;;;;;10.30;5.83;;;;;;;;;;5011258;28;20520;-58
2021/01/13 06:38:56;;;;;;;8.63;5.27;;;;;;;;;;4999806;28;20417;-57
2021/01/13 06:41:23;;;;;;;9.27;5.37;;;;;;;;;;5029081;28;20914;-56
2021/01/13 06:44:03;;;;;;;9.07;4.87;;;;;;;;;;5028609;28;20416;-57
2021/01/13 06:46:29;;;;;;;11.40;5.27;;;;;;;;;;5011189;28;20453;-58
2021/01/13 06:48:55;;;;;;;10.63;5.43;;;;;;;;;;5028180;28;20936;-60
2021/01/13 06:51:23;;;;;;;8.73;5.23;;;;;;;;;;5029486;28;20415;-58
2021/01/13 06:53:50;;;;;;;6.20;4.73;;;;;;;;;;5010849;28;20421;-58
2021/01/13 06:56:16;;;;;;;7.80;4.90;;;;;;;;;;5028428;28;20848;-58
2021/01/13 06:58:55;;;;;;;7.33;5.07;;;;;;;;;;5027335;28;20421;-58
2021/01/13 07:01:21;;;;;;;10.50;5.17;;;;;;;;;;5026865;28;20408;-58
2021/01/13 07:03:56;;;;;;;6.53;5.27;;;;;;;;;;5008398;28;20491;-57
2021/01/13 07:06:22;;;;;;;6.50;5.13;;;;;;;;;;5022863;28;20879;-58
2021/01/13 07:08:49;;;;;;;7.80;5.33;;;;;;;;;;5025693;28;20460;-58
2021/01/13 07:11:15;;;;;;;8.37;5.10;;;;;;;;;;5026732;28;20459;-59
2021/01/13 07:13:42;;;;;;;8.17;5.43;;;;;;;;;;5027720;28;20500;-58
2021/01/13 07:16:08;;;;;;;9.50;5.07;;;;;;;;;;5025192;28;20421;-58
2021/01/13 07:18:37;;;;;;;9.93;5.37;;;;;;;;;;5017942;28;20410;-58
2021/01/13 07:21:07;;;;;;;6.70;5.10;;;;;;;;;;5007114;28;20464;-58
2021/01/13 07:23:33;;;;;;;6.83;4.77;;;;;;;;;;5007939;28;20517;-58
2021/01/13 07:26:00;;;;;;;8.10;4.73;;;;;;;;;;5021516;28;20417;-57
2021/01/13 07:28:26;;;;;;;5.63;4.33;;;;;;;;;;4998586;28;20486;-58
2021/01/13 07:30:53;;;;;;;10.73;5.50;;;;;;;;;;4996896;28;20421;-58
2021/01/13 07:33:24;;;;;;;7.00;5.10;;;;;;;;;;5002492;28;20930;-58
2021/01/13 07:35:51;;;;;;;9.97;5.67;;;;;;;;;;5014911;28;20417;-57
2021/01/13 07:38:18;;;;;;;5.33;4.60;;;;;;;;;;4997886;28;20427;-56
2021/01/13 07:41:04;;;;;;;7.97;4.83;;;;;;;;;;5016172;28;20820;-58
2021/01/13 07:43:45;;;;;;;12.87;4.77;;;;;;;;;;5019666;28;20429;-57
2021/01/13 07:46:18;;;;;;;9.30;5.10;;;;;;;;;;5023254;28;20428;-58
2021/01/13 07:49:00;;;;;;;9.70;5.47;;;;;;;;;;5000162;28;20420;-56
2021/01/13 07:51:31;;;;;;;11.90;5.13;;;;;;;;;;5008776;28;21004;-58
2021/01/13 07:54:05;;;;;;;11.17;5.87;;;;;;;;;;5009463;28;20393;-57
2021/01/13 07:56:34;;;;;;;6.97;5.07;;;;;;;;;;5023367;28;20553;-57
2021/01/13 07:59:13;;;;;;;9.17;5.60;;;;;;;;;;5011082;28;20435;-57
2021/01/13 08:01:56;;;;;;;9.40;4.97;;;;;;;;;;5026486;28;20505;-57
2021/01/13 08:04:22;;;;;;;7.33;4.80;;;;;;;;;;5010319;28;20405;-57
2021/01/13 08:06:49;;;;;;;9.53;5.37;;;;;;;;;;5026942;28;20412;-57
2021/01/13 08:09:22;;;;;;;10.90;5.10;;;;;;;;;;5007940;28;20236;-57
2021/01/13 08:12:09;;;;;;;9.37;5.40;;;;;;;;;;5026330;28;20806;-57
2021/01/13 08:14:44;;;;;;;9.70;5.43;;;;;;;;;;5028002;28;20756;-59
2021/01/13 08:17:17;;;;;;;11.43;5.97;;;;;;;;;;5025984;28;20416;-58
2021/01/13 08:20:02;;;;;;;7.07;5.03;;;;;;;;;;5007027;28;20468;-58
2021/01/13 08:22:29;;;;;;;8.40;5.03;;;;;;;;;;5026860;28;20582;-57
2021/01/13 08:25:08;;;;;;;10.23;6.30;;;;;;;;;;5021912;28;20899;-57
2021/01/13 08:27:34;;;;;;;10.03;5.63;;;;;;;;;;5026157;28;20939;-57
2021/01/13 08:30:02;;;;;;;7.47;5.37;;;;;;;;;;5029426;28;20497;-58
2021/01/13 08:32:39;;;;;;;7.37;4.83;;;;;;;;;;5022958;28;20431;-57
2021/01/13 08:35:06;;;;;;;6.97;4.90;;;;;;;;;;5026589;28;20436;-57
2021/01/13 08:37:33;;;;;;;7.90;4.97;;;;;;;;;;5026154;28;20440;-57
2021/01/13 08:40:00;;;;;;;7.70;5.80;;;;;;;;;;5028026;28;20468;-57
2021/01/13 08:42:29;;;;;;;6.83;5.17;;;;;;;;;;5006172;28;20519;-57
2021/01/13 08:44:56;;;;;;;9.47;5.33;;;;;;;;;;5029555;28;20826;-57
2021/01/13 08:47:26;;;;;;;7.57;5.47;;;;;;;;;;4997849;28;20491;-57
2021/01/13 08:49:52;;;;;;;8.97;5.50;;;;;;;;;;5026803;28;20443;-58
2021/01/13 08:52:19;;;;;;;8.97;5.77;;;;;;;;;;5013887;28;20439;-57
2021/01/13 08:55:05;;;;;;;8.40;5.43;;;;;;;;;;5030269;28;20451;-57
2021/01/13 08:57:51;;;;;;;8.13;5.10;;;;;;;;;;5009402;28;20776;-59
2021/01/13 09:00:18;;;;;;;13.43;5.73;;;;;;;;;;5022782;28;20453;-58
2021/01/13 09:02:51;;;;;;;10.10;5.20;;;;;;;;;;5026981;28;20467;-58
2021/01/13 09:05:28;;;;;;;12.40;5.73;;;;;;;;;;5026565;28;20492;-58
2021/01/13 09:07:54;;;;;;;13.27;6.23;;;;;;;;;;5014985;28;20488;-58
2021/01/13 09:10:21;;;;;;;7.77;5.50;;;;;;;;;;5003221;28;20441;-58
2021/01/13 09:12:47;;;;;;;10.77;6.30;;;;;;;;;;5029212;28;20444;-60
2021/01/13 09:15:15;;;;;;;8.43;5.70;;;;;;;;;;5032020;28;20502;-58
2021/01/13 09:17:53;;;;;;;12.37;6.80;;;;;;;;;;5025636;28;20428;-57
2021/01/13 09:20:24;;;;;;;8.33;6.40;;;;;;;;;;5007224;28;20470;-58
2021/01/13 09:22:54;;;;;;;11.30;5.33;;;;;;;;;;5027310;28;20433;-57
2021/01/13 09:25:21;;;;;;;8.23;5.47;;;;;;;;;;5026648;28;20426;-58
2021/01/13 09:27:50;;;;;;;12.97;7.07;;;;;;;;;;5005351;28;20515;-58
2021/01/13 09:30:25;;;;;;;7.77;5.80;;;;;;;;;;5003793;28;20442;-58
2021/01/13 09:32:52;;;;;;;10.70;5.60;;;;;;;;;;5006770;28;20763;-58
2021/01/13 09:35:23;;;;;;;11.63;6.47;;;;;;;;;;5002797;28;21260;-58
2021/01/13 09:37:51;;;;;;;9.20;5.60;;;;;;;;;;5023975;28;20420;-58
2021/01/13 09:40:18;;;;;;;7.27;5.57;;;;;;;;;;5007808;28;20464;-58
2021/01/13 09:42:45;;;;;;;8.77;5.57;;;;;;;;;;5024145;28;20516;-59
2021/01/13 09:45:12;;;;;;;8.33;5.53;;;;;;;;;;5029570;28;20420;-58
2021/01/13 09:47:38;;;;;;;7.30;5.70;;;;;;;;;;5013527;28;20428;-58
2021/01/13 09:50:11;;;;;;;9.17;5.77;;;;;;;;;;5031178;28;20516;-58
2021/01/13 09:52:38;;;;;;;7.87;5.50;;;;;;;;;;5023453;28;20436;-58
2021/01/13 09:55:08;;;;;;;10.00;6.23;;;;;;;;;;5012170;28;20433;-58
2021/01/13 09:57:35;;;;;;;7.73;5.87;;;;;;;;;;5030377;28;20750;-58
2021/01/13 10:00:01;;;;;;;10.90;5.67;;;;;;;;;;5028304;28;20501;-59
2021/01/13 10:02:28;;;;;;;7.80;5.60;;;;;;;;;;5009577;28;20436;-61
2021/01/13 10:04:54;;;;;;;8.50;6.10;;;;;;;;;;5011014;28;20700;-59
2021/01/13 10:07:24;;;;;;;7.77;5.53;;;;;;;;;;5028252;28;21144;-58
2021/01/13 10:09:50;;;;;;;7.37;5.57;;;;;;;;;;5028310;28;20460;-57
2021/01/13 10:12:17;;;;;;;8.40;5.93;;;;;;;;;;5027010;28;20452;-57
2021/01/13 10:14:51;;;;;;;10.97;6.40;;;;;;;;;;5027692;28;20508;-57
2021/01/13 10:17:27;;;;;;;6.63;5.47;;;;;;;;;;5022803;28;20495;-58
2021/01/13 10:19:56;;;;;;;10.80;6.07;;;;;;;;;;5026204;28;20466;-58
2021/01/13 10:22:25;;;;;;;9.73;6.10;;;;;;;;;;5027337;28;20420;-57
2021/01/13 10:24:51;;;;;;;8.20;6.17;;;;;;;;;;5028859;28;20419;-57
2021/01/13 10:27:18;;;;;;;8.50;6.10;;;;;;;;;;5009965;28;20467;-60
2021/01/13 10:29:45;;;;;;;10.60;6.40;;;;;;;;;;5029491;28;20452;-58
2021/01/13 10:32:11;;;;;;;8.10;6.40;;;;;;;;;;5028948;28;20475;-57
2021/01/13 10:34:37;;;;;;;10.07;5.93;;;;;;;;;;5011692;28;20416;-58
2021/01/13 10:37:03;;;;;;;10.60;6.93;;;;;;;;;;5026820;28;20439;-58
2021/01/13 10:39:30;;;;;;;10.23;6.40;;;;;;;;;;5029119;28;20977;-58
2021/01/13 10:42:05;;;;;;;8.87;6.57;;;;;;;;;;5028839;28;20884;-58
2021/01/13 10:44:32;;;;;;;11.40;6.60;;;;;;;;;;5010216;28;20420;-58
2021/01/13 10:46:59;;;;;;;10.33;6.90;;;;;;;;;;5028133;28;20433;-59
2021/01/13 10:49:25;;;;;;;13.37;6.57;;;;;;;;;;5010479;28;20760;-58
2021/01/13 10:51:56;;;;;;;8.70;6.63;;;;;;;;;;5028763;28;20469;-57
2021/01/13 10:54:26;;;;;;;9.60;6.20;;;;;;;;;;5029374;28;20433;-58
2021/01/13 10:56:59;;;;;;;9.37;6.57;;;;;;;;;;5032977;28;20418;-57
2021/01/13 10:59:26;;;;;;;10.13;7.07;;;;;;;;;;5011314;28;20209;-58
2021/01/13 11:01:58;;;;;;;8.27;6.67;;;;;;;;;;5013298;28;20555;-57
2021/01/13 11:04:25;;;;;;;10.40;6.87;;;;;;;;;;5013390;28;20511;-59
2021/01/13 11:06:55;;;;;;;10.63;6.80;;;;;;;;;;5028825;28;20452;-59
2021/01/13 11:09:22;;;;;;;15.87;7.37;;;;;;;;;;5009140;28;20460;-58
2021/01/13 11:11:48;;;;;;;11.13;7.30;;;;;;;;;;5011203;28;20498;-58
2021/01/13 11:14:14;;;;;;;11.07;6.70;;;;;;;;;;5008276;28;20437;-59
2021/01/13 11:16:59;;;;;;;10.50;6.83;;;;;;;;;;4991484;28;20440;-58
2021/01/13 11:19:26;;;;;;;10.40;7.60;;;;;;;;;;5023059;28;20462;-59
2021/01/13 11:21:55;;;;;;;9.67;7.03;;;;;;;;;;5028186;28;20777;-59
2021/01/13 11:24:31;;;;;;;8.53;7.60;;;;;;;;;;4999916;28;20417;-59
2021/01/13 11:27:10;;;;;;;8.07;6.93;;;;;;;;;;5015938;28;20460;-59
2021/01/13 11:29:38;;;;;;;9.67;7.27;;;;;;;;;;5011112;28;20486;-59
2021/01/13 11:32:04;;;;;;;10.27;7.47;;;;;;;;;;5009766;28;20417;-59
2021/01/13 11:34:31;;;;;;;10.50;7.37;;;;;;;;;;5012046;28;20872;-59
2021/01/13 11:37:03;;;;;;;12.43;7.97;;;;;;;;;;5028774;28;20429;-57
2021/01/13 11:39:32;;;;;;;9.40;7.27;;;;;;;;;;5028718;28;21033;-59
2021/01/13 11:42:05;;;;;;;10.70;7.83;;;;;;;;;;5010726;28;20451;-58
2021/01/13 11:44:31;;;;;;;16.07;8.47;;;;;;;;;;5023177;28;20415;-58
2021/01/13 11:47:17;;;;;;;10.73;8.07;;;;;;;;;;5028405;28;20421;-57
2021/01/13 11:49:52;;;;;;;12.23;8.87;;;;;;;;;;5027217;28;20416;-59
2021/01/13 11:52:19;;;;;;;11.03;8.77;;;;;;;;;;5029312;28;20899;-57
2021/01/13 11:54:50;;;;;;;10.37;8.67;;;;;;;;;;5018434;28;20939;-57
2021/01/13 11:57:35;;;;;;;13.03;8.93;;;;;;;;;;5023540;28;20416;-58
2021/01/13 12:00:13;;;;;;;10.20;7.90;;;;;;;;;;5028366;28;20452;-58
2021/01/13 12:02:40;;;;;;;15.07;8.87;;;;;;;;;;5028582;28;20416;-57
2021/01/13 12:05:09;;;;;;;14.67;8.37;;;;;;;;;;5024513;28;20829;-59
2021/01/13 12:07:35;;;;;;;12.83;9.47;;;;;;;;;;5020183;28;20520;-60
2021/01/13 12:10:08;;;;;;;11.30;8.57;;;;;;;;;;5013963;28;20475;-58
2021/01/13 12:12:34;;;;;;;15.93;9.97;;;;;;;;;;5026570;28;20421;-60
2021/01/13 12:15:10;;;;;;;13.60;8.77;;;;;;;;;;5028296;28;20490;-59
2021/01/13 12:17:50;;;;;;;11.53;9.43;;;;;;;;;;5028987;28;20927;-58
2021/01/13 12:20:29;;;;;;;15.93;9.60;;;;;;;;;;5029078;28;20458;-58
2021/01/13 12:22:55;;;;;;;14.77;9.93;;;;;;;;;;5028996;28;20397;-58
2021/01/13 12:25:25;;;;;;;12.73;9.77;;;;;;;;;;5029279;28;20902;-58
2021/01/13 12:28:04;;;;;;;11.70;8.87;;;;;;;;;;5027411;28;20427;-59
2021/01/13 12:30:30;;;;;;;10.17;9.13;;;;;;;;;;5009081;28;20175;-58
2021/01/13 12:32:56;;;;;;;11.13;9.40;;;;;;;;;;5026325;28;20454;-58
2021/01/13 12:35:27;;;;;;;13.50;9.93;;;;;;;;;;5028798;28;20421;-58
2021/01/13 12:37:53;;;;;;;12.43;9.07;;;;;;;;;;5028229;28;20582;-58
2021/01/13 12:40:29;;;;;;;11.70;9.00;;;;;;;;;;5028553;28;20576;-59
2021/01/13 12:42:55;;;;;;;18.37;9.83;;;;;;;;;;5009573;28;20181;-58
2021/01/13 12:45:21;;;;;;;15.13;10.10;;;;;;;;;;5028611;28;20497;-58
2021/01/13 12:47:55;;;;;;;14.33;10.27;;;;;;;;;;5027557;28;20440;-58
2021/01/13 12:50:21;;;;;;;11.57;10.33;;;;;;;;;;5010589;28;20771;-58
2021/01/13 12:52:50;;;;;;;11.57;10.37;;;;;;;;;;5028316;28;20731;-58
2021/01/13 12:55:16;;;;;;;12.67;9.63;;;;;;;;;;5022874;28;20936;-59
2021/01/13 12:57:42;;;;;;;14.47;10.27;;;;;;;;;;5025896;28;20764;-58
2021/01/13 13:00:09;;;;;;;14.77;9.57;;;;;;;;;;5004985;28;20798;-57
2021/01/13 13:02:35;;;;;;;10.83;9.23;;;;;;;;;;5018725;28;20420;-59
2021/01/13 13:05:01;;;;;;;12.87;10.13;;;;;;;;;;5027005;28;20882;-58
2021/01/13 13:07:27;;;;;;;10.63;9.53;;;;;;;;;;5006054;28;20185;-58
2021/01/13 13:09:53;;;;;;;14.03;9.83;;;;;;;;;;5030266;28;20279;-58
2021/01/13 13:12:19;;;;;;;12.83;9.03;;;;;;;;;;5011969;28;20251;-60
2021/01/13 13:14:45;;;;;;;10.10;8.93;;;;;;;;;;5031330;28;20178;-58
2021/01/13 13:17:11;;;;;;;12.43;9.53;;;;;;;;;;5031255;28;20407;-58
2021/01/13 13:19:37;;;;;;;10.40;9.37;;;;;;;;;;5023211;28;20208;-58
2021/01/13 13:22:03;;;;;;;15.30;8.53;;;;;;;;;;5013707;28;20231;-58
2021/01/13 13:24:29;;;;;;;11.57;9.03;;;;;;;;;;5031252;28;20510;-58
2021/01/13 13:26:56;;;;;;;12.20;8.87;;;;;;;;;;5030122;28;20803;-58
2021/01/13 13:29:22;;;;;;;10.03;8.17;;;;;;;;;;5030998;28;20178;-58
2021/01/13 13:31:49;;;;;;;9.43;8.20;;;;;;;;;;5004134;28;20413;-57
2021/01/13 13:34:15;;;;;;;12.90;8.20;;;;;;;;;;5026911;28;20490;-58
2021/01/13 13:36:41;;;;;;;10.03;8.27;;;;;;;;;;5031397;28;20512;-58
2021/01/13 13:39:08;;;;;;;12.27;8.70;;;;;;;;;;5030007;28;20919;-58
2021/01/13 13:41:34;;;;;;;12.23;8.73;;;;;;;;;;5012792;28;20435;-58
2021/01/13 13:44:00;;;;;;;11.97;8.17;;;;;;;;;;5010710;28;20178;-57
2021/01/13 13:46:26;;;;;;;9.40;7.77;;;;;;;;;;5000667;28;20657;-59
2021/01/13 13:48:55;;;;;;;10.03;8.10;;;;;;;;;;5016003;28;20180;-58
2021/01/13 13:51:21;;;;;;;11.07;7.77;;;;;;;;;;5018717;28;20187;-57
2021/01/13 13:53:47;;;;;;;11.80;6.97;;;;;;;;;;5011740;28;20504;-57
2021/01/13 13:56:19;;;;;;;13.77;8.60;;;;;;;;;;5006674;28;20193;-57
2021/01/13 13:58:45;;;;;;;8.17;6.80;;;;;;;;;;5025182;28;20182;-59
2021/01/13 14:01:11;;;;;;;9.30;6.70;;;;;;;;;;5025110;28;20206;-57
2021/01/13 14:03:39;;;;;;;10.83;7.33;;;;;;;;;;5030430;28;20420;-58
2021/01/13 14:06:05;;;;;;;10.07;7.27;;;;;;;;;;5030463;28;20437;-57
2021/01/13 14:08:31;;;;;;;10.20;7.40;;;;;;;;;;5028521;28;20222;-57
2021/01/13 14:10:58;;;;;;;11.10;7.57;;;;;;;;;;5022538;28;20743;-57
2021/01/13 14:13:24;;;;;;;9.70;6.63;;;;;;;;;;5018366;28;20244;-58
2021/01/13 14:15:50;;;;;;;9.67;6.90;;;;;;;;;;5016137;28;20444;-57
2021/01/13 14:18:16;;;;;;;11.43;7.23;;;;;;;;;;5022927;28;20186;-59
2021/01/13 14:20:42;;;;;;;8.80;6.20;;;;;;;;;;5004871;28;20193;-58
2021/01/13 14:23:09;;;;;;;10.60;6.53;;;;;;;;;;4997852;28;20516;-58
2021/01/13 14:25:35;;;;;;;9.10;6.70;;;;;;;;;;5020245;28;20441;-59
2021/01/13 14:28:01;;;;;;;8.47;6.70;;;;;;;;;;5019746;28;20436;-58
2021/01/13 14:30:28;;;;;;;8.53;6.53;;;;;;;;;;5025941;28;20429;-58
2021/01/13 14:32:54;;;;;;;10.53;6.60;;;;;;;;;;5019676;28;20425;-58
2021/01/13 14:35:20;;;;;;;13.90;6.40;;;;;;;;;;5012616;28;20225;-58
2021/01/13 14:37:48;;;;;;;7.43;6.10;;;;;;;;;;5011495;28;20186;-59
2021/01/13 14:40:14;;;;;;;10.33;6.47;;;;;;;;;;4991443;28;20492;-58
2021/01/13 14:42:40;;;;;;;6.63;6.03;;;;;;;;;;5013100;28;20688;-58
2021/01/13 14:45:07;;;;;;;8.83;6.83;;;;;;;;;;5015516;28;20541;-58
2021/01/13 14:47:33;;;;;;;7.57;6.63;;;;;;;;;;4998334;28;20680;-58
2021/01/13 14:49:59;;;;;;;11.53;6.87;;;;;;;;;;5025494;28;20216;-58
2021/01/13 14:52:25;;;;;;;9.80;6.93;;;;;;;;;;5028414;28;20451;-58